sensor_id;sensor_type;location;lat;lon;timestamp;pressure;altitude;pressure_sealevel;temperature;humidity
35331;BME280;21441;52.190;20.910;2023-04-28T00:00:51;100627.94;;;4.60;87.16
35331;BME280;21441;52.190;20.910;2023-04-28T00:03:19;100624.19;;;4.63;85.96
35331;BME280;21441;52.190;20.910;2023-04-28T00:05:46;100622.91;;;4.57;86.92
35331;BME280;21441;52.190;20.910;2023-04-28T00:08:15;100628.22;;;4.46;88.82
35331;BME280;21441;52.190;20.910;2023-04-28T00:10:42;100629.50;;;4.51;88.20
35331;BME280;21441;52.190;20.910;2023-04-28T00:13:09;100621.34;;;4.32;89.50
35331;BME280;21441;52.190;20.910;2023-04-28T00:15:36;100629.28;;;4.21;91.20
35331;BME280;21441;52.190;20.910;2023-04-28T00:18:04;100621.00;;;4.25;92.06
35331;BME280;21441;52.190;20.910;2023-04-28T00:20:31;100624.25;;;4.18;94.51
35331;BME280;21441;52.190;20.910;2023-04-28T00:22:58;100624.63;;;4.13;96.82
35331;BME280;21441;52.190;20.910;2023-04-28T00:25:26;100623.78;;;4.35;97.38
35331;BME280;21441;52.190;20.910;2023-04-28T00:27:53;100625.31;;;4.49;95.28
35331;BME280;21441;52.190;20.910;2023-04-28T00:30:20;100617.63;;;4.46;94.40
35331;BME280;21441;52.190;20.910;2023-04-28T00:32:49;100623.28;;;4.52;94.15
35331;BME280;21441;52.190;20.910;2023-04-28T00:35:17;100625.31;;;4.38;95.35
35331;BME280;21441;52.190;20.910;2023-04-28T00:37:44;100615.38;;;4.07;97.31
35331;BME280;21441;52.190;20.910;2023-04-28T00:40:11;100628.31;;;3.88;100.00
35331;BME280;21441;52.190;20.910;2023-04-28T00:42:41;100622.78;;;3.80;100.00
35331;BME280;21441;52.190;20.910;2023-04-28T00:45:08;100627.81;;;3.71;100.00
35331;BME280;21441;52.190;20.910;2023-04-28T00:47:36;100630.19;;;3.63;100.00
35331;BME280;21441;52.190;20.910;2023-04-28T00:50:04;100629.22;;;3.64;100.00
35331;BME280;21441;52.190;20.910;2023-04-28T00:52:32;100629.22;;;3.64;100.00
35331;BME280;21441;52.190;20.910;2023-04-28T00:54:59;100623.56;;;3.58;100.00
35331;BME280;21441;52.190;20.910;2023-04-28T00:57:26;100627.19;;;3.57;100.00
35331;BME280;21441;52.190;20.910;2023-04-28T00:59:54;100627.19;;;3.57;100.00
35331;BME280;21441;52.190;20.910;2023-04-28T01:02:22;100633.16;;;3.47;100.00
35331;BME280;21441;52.190;20.910;2023-04-28T01:04:49;100627.88;;;3.36;100.00
35331;BME280;21441;52.190;20.910;2023-04-28T01:07:17;100629.44;;;3.39;100.00
35331;BME280;21441;52.190;20.910;2023-04-28T01:09:44;100630.59;;;3.35;100.00
35331;BME280;21441;52.190;20.910;2023-04-28T01:12:12;100629.97;;;3.31;100.00
35331;BME280;21441;52.190;20.910;2023-04-28T01:14:39;100631.34;;;3.37;100.00
35331;BME280;21441;52.190;20.910;2023-04-28T01:17:09;100636.81;;;3.34;100.00
35331;BME280;21441;52.190;20.910;2023-04-28T01:19:36;100633.06;;;3.25;100.00
35331;BME280;21441;52.190;20.910;2023-04-28T01:22:04;100638.13;;;3.28;100.00
35331;BME280;21441;52.190;20.910;2023-04-28T01:24:33;100635.84;;;3.23;100.00
35331;BME280;21441;52.190;20.910;2023-04-28T01:27:00;100635.94;;;3.22;100.00
35331;BME280;21441;52.190;20.910;2023-04-28T01:29:27;100632.94;;;3.15;100.00
35331;BME280;21441;52.190;20.910;2023-04-28T01:31:54;100631.25;;;3.14;100.00
35331;BME280;21441;52.190;20.910;2023-04-28T01:34:22;100637.81;;;3.08;100.00
35331;BME280;21441;52.190;20.910;2023-04-28T01:36:49;100637.81;;;3.08;100.00
35331;BME280;21441;52.190;20.910;2023-04-28T01:39:16;100643.88;;;2.98;100.00
35331;BME280;21441;52.190;20.910;2023-04-28T01:41:45;100636.78;;;2.98;100.00
35331;BME280;21441;52.190;20.910;2023-04-28T01:44:12;100645.22;;;3.03;100.00
35331;BME280;21441;52.190;20.910;2023-04-28T01:46:39;100644.75;;;3.09;100.00
35331;BME280;21441;52.190;20.910;2023-04-28T01:49:06;100641.81;;;3.14;100.00
35331;BME280;21441;52.190;20.910;2023-04-28T01:51:34;100653.69;;;3.20;100.00
35331;BME280;21441;52.190;20.910;2023-04-28T01:54:01;100646.53;;;3.33;100.00
35331;BME280;21441;52.190;20.910;2023-04-28T01:56:28;100644.72;;;3.34;100.00
35331;BME280;21441;52.190;20.910;2023-04-28T01:58:56;100646.16;;;3.26;100.00
35331;BME280;21441;52.190;20.910;2023-04-28T02:01:24;100648.69;;;3.28;100.00
35331;BME280;21441;52.190;20.910;2023-04-28T02:03:51;100641.94;;;3.24;100.00
35331;BME280;21441;52.190;20.910;2023-04-28T02:06:20;100651.78;;;3.22;100.00
35331;BME280;21441;52.190;20.910;2023-04-28T02:08:47;100649.38;;;3.19;100.00
35331;BME280;21441;52.190;20.910;2023-04-28T02:11:14;100642.53;;;3.16;100.00
35331;BME280;21441;52.190;20.910;2023-04-28T02:13:41;100649.53;;;3.28;100.00
35331;BME280;21441;52.190;20.910;2023-04-28T02:16:10;100647.97;;;3.26;100.00
35331;BME280;21441;52.190;20.910;2023-04-28T02:18:37;100649.25;;;3.20;100.00
35331;BME280;21441;52.190;20.910;2023-04-28T02:21:08;100648.03;;;3.13;100.00
35331;BME280;21441;52.190;20.910;2023-04-28T02:23:36;100649.38;;;2.95;100.00
35331;BME280;21441;52.190;20.910;2023-04-28T02:26:03;100652.22;;;2.92;100.00
35331;BME280;21441;52.190;20.910;2023-04-28T02:28:30;100631.75;;;2.95;100.00
35331;BME280;21441;52.190;20.910;2023-04-28T02:31:05;100657.16;;;3.20;100.00
35331;BME280;21441;52.190;20.910;2023-04-28T02:33:33;100652.66;;;3.09;100.00
35331;BME280;21441;52.190;20.910;2023-04-28T02:36:01;100649.31;;;3.07;100.00
35331;BME280;21441;52.190;20.910;2023-04-28T02:38:29;100643.88;;;2.98;100.00
35331;BME280;21441;52.190;20.910;2023-04-28T02:40:57;100649.00;;;2.88;100.00
35331;BME280;21441;52.190;20.910;2023-04-28T02:43:25;100635.41;;;2.81;100.00
35331;BME280;21441;52.190;20.910;2023-04-28T02:45:52;100639.00;;;2.80;100.00
35331;BME280;21441;52.190;20.910;2023-04-28T02:48:19;100643.53;;;2.78;100.00
35331;BME280;21441;52.190;20.910;2023-04-28T02:50:48;100645.63;;;2.86;100.00
35331;BME280;21441;52.190;20.910;2023-04-28T02:53:15;100637.28;;;2.92;100.00
35331;BME280;21441;52.190;20.910;2023-04-28T02:55:42;100646.28;;;2.77;100.00
35331;BME280;21441;52.190;20.910;2023-04-28T02:58:09;100652.25;;;2.79;100.00
35331;BME280;21441;52.190;20.910;2023-04-28T03:00:37;100657.34;;;2.82;100.00
35331;BME280;21441;52.190;20.910;2023-04-28T03:03:04;100654.66;;;2.95;100.00
35331;BME280;21441;52.190;20.910;2023-04-28T03:05:32;100645.19;;;2.92;100.00
35331;BME280;21441;52.190;20.910;2023-04-28T03:08:00;100648.19;;;3.23;100.00
35331;BME280;21441;52.190;20.910;2023-04-28T03:10:27;100652.91;;;3.06;100.00
35331;BME280;21441;52.190;20.910;2023-04-28T03:12:55;100659.16;;;3.05;100.00
35331;BME280;21441;52.190;20.910;2023-04-28T03:15:22;100655.09;;;2.88;100.00
35331;BME280;21441;52.190;20.910;2023-04-28T03:17:50;100658.72;;;2.75;100.00
35331;BME280;21441;52.190;20.910;2023-04-28T03:20:17;100665.03;;;2.72;100.00
35331;BME280;21441;52.190;20.910;2023-04-28T03:22:44;100660.91;;;2.81;100.00
35331;BME280;21441;52.190;20.910;2023-04-28T03:25:12;100650.56;;;2.91;100.00
35331;BME280;21441;52.190;20.910;2023-04-28T03:27:40;100662.59;;;2.82;100.00
35331;BME280;21441;52.190;20.910;2023-04-28T03:30:07;100671.53;;;2.92;100.00
35331;BME280;21441;52.190;20.910;2023-04-28T03:32:35;100665.59;;;3.01;100.00
35331;BME280;21441;52.190;20.910;2023-04-28T03:35:02;100661.81;;;3.17;100.00
35331;BME280;21441;52.190;20.910;2023-04-28T03:37:29;100662.22;;;3.23;100.00
35331;BME280;21441;52.190;20.910;2023-04-28T03:39:56;100667.31;;;3.14;100.00
35331;BME280;21441;52.190;20.910;2023-04-28T03:42:24;100660.59;;;2.85;100.00
35331;BME280;21441;52.190;20.910;2023-04-28T03:44:52;100662.16;;;3.36;100.00
35331;BME280;21441;52.190;20.910;2023-04-28T03:47:19;100664.09;;;3.45;100.00
35331;BME280;21441;52.190;20.910;2023-04-28T03:49:46;100662.63;;;3.41;100.00
35331;BME280;21441;52.190;20.910;2023-04-28T03:52:13;100655.47;;;3.55;100.00
35331;BME280;21441;52.190;20.910;2023-04-28T03:54:40;100659.03;;;3.42;100.00
35331;BME280;21441;52.190;20.910;2023-04-28T03:57:07;100666.81;;;3.33;100.00
35331;BME280;21441;52.190;20.910;2023-04-28T03:59:36;100666.75;;;3.21;100.00
35331;BME280;21441;52.190;20.910;2023-04-28T04:02:03;100668.59;;;3.32;100.00
35331;BME280;21441;52.190;20.910;2023-04-28T04:04:30;100662.63;;;3.41;100.00
35331;BME280;21441;52.190;20.910;2023-04-28T04:06:57;100659.19;;;3.52;100.00
35331;BME280;21441;52.190;20.910;2023-04-28T04:09:25;100669.19;;;3.71;100.00
35331;BME280;21441;52.190;20.910;2023-04-28T04:11:52;100667.44;;;3.83;100.00
35331;BME280;21441;52.190;20.910;2023-04-28T04:14:19;100669.00;;;3.97;100.00
35331;BME280;21441;52.190;20.910;2023-04-28T04:16:48;100681.75;;;4.25;100.00
35331;BME280;21441;52.190;20.910;2023-04-28T04:19:15;100670.94;;;4.51;100.00
35331;BME280;21441;52.190;20.910;2023-04-28T04:21:42;100674.41;;;4.51;100.00
35331;BME280;21441;52.190;20.910;2023-04-28T04:24:09;100679.84;;;4.61;100.00
35331;BME280;21441;52.190;20.910;2023-04-28T04:26:36;100675.25;;;4.63;100.00
35331;BME280;21441;52.190;20.910;2023-04-28T04:29:03;100680.16;;;4.57;100.00
35331;BME280;21441;52.190;20.910;2023-04-28T04:31:30;100672.38;;;4.55;100.00
35331;BME280;21441;52.190;20.910;2023-04-28T04:33:59;100678.63;;;4.54;100.00
35331;BME280;21441;52.190;20.910;2023-04-28T04:36:26;100688.38;;;4.42;100.00
35331;BME280;21441;52.190;20.910;2023-04-28T04:38:53;100687.28;;;4.45;100.00
35331;BME280;21441;52.190;20.910;2023-04-28T04:41:21;100684.88;;;4.42;100.00
35331;BME280;21441;52.190;20.910;2023-04-28T04:43:49;100680.19;;;4.45;100.00
35331;BME280;21441;52.190;20.910;2023-04-28T04:46:16;100686.91;;;4.38;100.00
35331;BME280;21441;52.190;20.910;2023-04-28T04:48:43;100684.25;;;4.61;100.00
35331;BME280;21441;52.190;20.910;2023-04-28T04:51:11;100687.47;;;4.87;100.00
35331;BME280;21441;52.190;20.910;2023-04-28T04:53:39;100692.63;;;4.88;100.00
35331;BME280;21441;52.190;20.910;2023-04-28T04:56:06;100688.53;;;4.95;97.66
35331;BME280;21441;52.190;20.910;2023-04-28T04:58:33;100697.94;;;4.88;98.05
35331;BME280;21441;52.190;20.910;2023-04-28T05:01:00;100696.78;;;5.13;95.84
35331;BME280;21441;52.190;20.910;2023-04-28T05:03:28;100687.41;;;5.21;94.81
35331;BME280;21441;52.190;20.910;2023-04-28T05:05:55;100675.75;;;5.12;93.21
35331;BME280;21441;52.190;20.910;2023-04-28T05:08:23;100698.72;;;5.44;93.15
35331;BME280;21441;52.190;20.910;2023-04-28T05:10:50;100697.16;;;5.73;90.66
35331;BME280;21441;52.190;20.910;2023-04-28T05:13:18;100699.84;;;5.83;86.21
35331;BME280;21441;52.190;20.910;2023-04-28T05:15:45;100690.94;;;5.84;85.50
35331;BME280;21441;52.190;20.910;2023-04-28T05:18:12;100693.41;;;5.97;83.45
35331;BME280;21441;52.190;20.910;2023-04-28T05:20:39;100706.72;;;6.07;81.96
35331;BME280;21441;52.190;20.910;2023-04-28T05:23:06;100699.59;;;6.28;79.83
35331;BME280;21441;52.190;20.910;2023-04-28T05:25:35;100700.31;;;6.30;79.31
35331;BME280;21441;52.190;20.910;2023-04-28T05:28:02;100705.53;;;6.51;78.19
35331;BME280;21441;52.190;20.910;2023-04-28T05:30:32;100703.28;;;6.87;76.27
35331;BME280;21441;52.190;20.910;2023-04-28T05:32:59;100696.72;;;6.81;74.13
35331;BME280;21441;52.190;20.910;2023-04-28T05:35:26;100706.25;;;6.94;73.43
35331;BME280;21441;52.190;20.910;2023-04-28T05:37:54;100697.59;;;7.01;71.42
35331;BME280;21441;52.190;20.910;2023-04-28T05:40:21;100699.00;;;7.15;70.35
35331;BME280;21441;52.190;20.910;2023-04-28T05:42:49;100705.84;;;7.18;67.66
35331;BME280;21441;52.190;20.910;2023-04-28T05:45:16;100707.13;;;7.14;68.11
35331;BME280;21441;52.190;20.910;2023-04-28T05:47:44;100703.63;;;7.33;67.81
35331;BME280;21441;52.190;20.910;2023-04-28T05:50:11;100704.34;;;7.44;67.17
35331;BME280;21441;52.190;20.910;2023-04-28T05:52:38;100710.66;;;7.53;66.98
35331;BME280;21441;52.190;20.910;2023-04-28T05:55:05;100701.56;;;7.56;67.49
35331;BME280;21441;52.190;20.910;2023-04-28T05:57:33;100709.09;;;7.60;64.10
35331;BME280;21441;52.190;20.910;2023-04-28T06:00:02;100708.69;;;7.55;63.72
35331;BME280;21441;52.190;20.910;2023-04-28T06:02:29;100700.25;;;7.79;61.95
35331;BME280;21441;52.190;20.910;2023-04-28T06:04:57;100700.56;;;8.33;61.87
35331;BME280;21441;52.190;20.910;2023-04-28T06:07:24;100702.41;;;8.33;61.39
35331;BME280;21441;52.190;20.910;2023-04-28T06:09:51;100702.31;;;8.15;60.33
35331;BME280;21441;52.190;20.910;2023-04-28T06:12:18;100694.16;;;8.26;59.23
35331;BME280;21441;52.190;20.910;2023-04-28T06:14:45;100695.22;;;8.43;59.03
35331;BME280;21441;52.190;20.910;2023-04-28T06:17:14;100695.25;;;8.71;58.38
35331;BME280;21441;52.190;20.910;2023-04-28T06:19:41;100701.47;;;8.61;57.48
35331;BME280;21441;52.190;20.910;2023-04-28T06:22:08;100701.16;;;8.64;56.23
35331;BME280;21441;52.190;20.910;2023-04-28T06:24:35;100701.59;;;8.60;56.25
35331;BME280;21441;52.190;20.910;2023-04-28T06:27:02;100712.34;;;8.68;56.15
35331;BME280;21441;52.190;20.910;2023-04-28T06:29:29;100696.53;;;8.94;55.53
35331;BME280;21441;52.190;20.910;2023-04-28T06:31:57;100699.31;;;9.20;54.63
35331;BME280;21441;52.190;20.910;2023-04-28T06:34:25;100692.91;;;9.67;52.52
35331;BME280;21441;52.190;20.910;2023-04-28T06:36:54;100699.09;;;9.49;51.24
35331;BME280;21441;52.190;20.910;2023-04-28T06:39:21;100695.63;;;9.57;51.70
35331;BME280;21441;52.190;20.910;2023-04-28T06:41:48;100702.66;;;9.58;52.65
35331;BME280;21441;52.190;20.910;2023-04-28T06:44:15;100699.91;;;9.50;53.47
35331;BME280;21441;52.190;20.910;2023-04-28T06:46:42;100680.38;;;9.41;52.99
35331;BME280;21441;52.190;20.910;2023-04-28T06:49:09;100703.84;;;9.82;53.06
35331;BME280;21441;52.190;20.910;2023-04-28T06:51:38;100700.41;;;9.89;52.05
35331;BME280;21441;52.190;20.910;2023-04-28T06:54:05;100703.63;;;9.75;50.90
35331;BME280;21441;52.190;20.910;2023-04-28T06:56:32;100695.00;;;9.81;51.10
35331;BME280;21441;52.190;20.910;2023-04-28T06:58:59;100708.25;;;10.17;50.49
35331;BME280;21441;52.190;20.910;2023-04-28T07:01:26;100706.53;;;9.82;49.60
35331;BME280;21441;52.190;20.910;2023-04-28T07:03:53;100709.56;;;10.13;49.48
35331;BME280;21441;52.190;20.910;2023-04-28T07:06:20;100710.81;;;10.27;49.40
35331;BME280;21441;52.190;20.910;2023-04-28T07:08:49;100697.28;;;10.20;50.33
35331;BME280;21441;52.190;20.910;2023-04-28T07:11:16;100699.03;;;10.29;50.15
35331;BME280;21441;52.190;20.910;2023-04-28T07:13:43;100695.78;;;10.44;50.25
35331;BME280;21441;52.190;20.910;2023-04-28T07:16:14;100702.81;;;10.53;47.53
35331;BME280;21441;52.190;20.910;2023-04-28T07:18:41;100700.63;;;10.22;47.84
35331;BME280;21441;52.190;20.910;2023-04-28T07:21:08;100697.31;;;10.28;48.55
35331;BME280;21441;52.190;20.910;2023-04-28T07:23:35;100694.38;;;10.31;49.11
35331;BME280;21441;52.190;20.910;2023-04-28T07:26:05;100694.47;;;10.48;48.17
35331;BME280;21441;52.190;20.910;2023-04-28T07:28:32;100695.41;;;10.12;47.33
35331;BME280;21441;52.190;20.910;2023-04-28T07:31:00;100692.09;;;10.45;47.72
35331;BME280;21441;52.190;20.910;2023-04-28T07:33:27;100688.25;;;10.82;47.88
35331;BME280;21441;52.190;20.910;2023-04-28T07:35:54;100686.00;;;11.11;44.50
35331;BME280;21441;52.190;20.910;2023-04-28T07:38:21;100678.97;;;10.94;44.56
35331;BME280;21441;52.190;20.910;2023-04-28T07:40:48;100676.75;;;10.39;44.85
35331;BME280;21441;52.190;20.910;2023-04-28T07:43:17;100677.94;;;10.44;45.71
35331;BME280;21441;52.190;20.910;2023-04-28T07:45:44;100672.56;;;10.79;45.98
35331;BME280;21441;52.190;20.910;2023-04-28T07:48:13;100669.53;;;10.73;45.58
35331;BME280;21441;52.190;20.910;2023-04-28T07:50:41;100666.03;;;10.73;44.32
35331;BME280;21441;52.190;20.910;2023-04-28T07:53:08;100669.97;;;11.20;42.81
35331;BME280;21441;52.190;20.910;2023-04-28T07:55:35;100668.84;;;11.22;43.11
35331;BME280;21441;52.190;20.910;2023-04-28T07:58:02;100681.00;;;11.17;40.55
35331;BME280;21441;52.190;20.910;2023-04-28T08:00:31;100664.28;;;11.06;39.82
35331;BME280;21441;52.190;20.910;2023-04-28T08:02:58;100661.84;;;11.38;39.98
35331;BME280;21441;52.190;20.910;2023-04-28T08:05:25;100661.84;;;11.70;39.83
35331;BME280;21441;52.190;20.910;2023-04-28T08:07:52;100654.16;;;11.59;39.98
35331;BME280;21441;52.190;20.910;2023-04-28T08:10:20;100646.31;;;11.90;40.24
35331;BME280;21441;52.190;20.910;2023-04-28T08:12:47;100649.75;;;12.15;39.73
35331;BME280;21441;52.190;20.910;2023-04-28T08:15:14;100641.59;;;12.09;39.91
35331;BME280;21441;52.190;20.910;2023-04-28T08:17:43;100645.28;;;12.08;37.42
35331;BME280;21441;52.190;20.910;2023-04-28T08:20:11;100642.28;;;11.86;37.83
35331;BME280;21441;52.190;20.910;2023-04-28T08:22:39;100648.66;;;11.69;37.36
35331;BME280;21441;52.190;20.910;2023-04-28T08:25:08;100645.47;;;11.16;37.63
35331;BME280;21441;52.190;20.910;2023-04-28T08:27:35;100640.44;;;11.13;37.88
35331;BME280;21441;52.190;20.910;2023-04-28T08:30:06;100656.22;;;10.82;38.85
35331;BME280;21441;52.190;20.910;2023-04-28T08:32:33;100644.63;;;11.32;39.36
35331;BME280;21441;52.190;20.910;2023-04-28T08:35:02;100642.78;;;11.73;38.39
35331;BME280;21441;52.190;20.910;2023-04-28T08:37:29;100636.25;;;12.09;38.33
35331;BME280;21441;52.190;20.910;2023-04-28T08:39:56;100626.75;;;12.46;38.36
35331;BME280;21441;52.190;20.910;2023-04-28T08:42:28;100631.47;;;12.75;36.19
35331;BME280;21441;52.190;20.910;2023-04-28T08:44:57;100625.56;;;12.01;36.17
35331;BME280;21441;52.190;20.910;2023-04-28T08:47:28;100632.25;;;11.96;36.75
35331;BME280;21441;52.190;20.910;2023-04-28T08:50:02;100622.06;;;11.84;37.72
35331;BME280;21441;52.190;20.910;2023-04-28T08:52:30;100626.19;;;12.19;38.34
35331;BME280;21441;52.190;20.910;2023-04-28T08:54:58;100623.03;;;12.55;37.55
35331;BME280;21441;52.190;20.910;2023-04-28T08:57:26;100611.53;;;12.46;37.27
35331;BME280;21441;52.190;20.910;2023-04-28T08:59:53;100618.25;;;12.73;37.67
35331;BME280;21441;52.190;20.910;2023-04-28T09:02:21;100612.94;;;13.19;36.94
35331;BME280;21441;52.190;20.910;2023-04-28T09:04:48;100628.09;;;12.50;35.66
35331;BME280;21441;52.190;20.910;2023-04-28T09:07:17;100615.44;;;12.27;36.92
35331;BME280;21441;52.190;20.910;2023-04-28T09:09:44;100600.84;;;12.38;36.56
35331;BME280;21441;52.190;20.910;2023-04-28T09:12:11;100609.38;;;12.73;36.81
35331;BME280;21441;52.190;20.910;2023-04-28T09:14:38;100607.59;;;13.43;37.39
35331;BME280;21441;52.190;20.910;2023-04-28T09:17:09;100601.03;;;13.45;36.37
35331;BME280;21441;52.190;20.910;2023-04-28T09:19:37;100591.34;;;13.44;36.59
35331;BME280;21441;52.190;20.910;2023-04-28T09:22:07;100600.81;;;13.32;36.26
35331;BME280;21441;52.190;20.910;2023-04-28T09:24:37;100588.97;;;13.64;36.49
35331;BME280;21441;52.190;20.910;2023-04-28T09:27:07;100599.59;;;13.34;34.85
35331;BME280;21441;52.190;20.910;2023-04-28T09:29:37;100595.84;;;13.81;34.54
35331;BME280;21441;52.190;20.910;2023-04-28T09:32:12;100588.16;;;14.23;33.78
35331;BME280;21441;52.190;20.910;2023-04-28T09:34:43;100582.16;;;14.06;33.59
35331;BME280;21441;52.190;20.910;2023-04-28T09:37:15;100582.66;;;14.31;33.68
35331;BME280;21441;52.190;20.910;2023-04-28T09:39:45;100581.34;;;14.72;33.26
35331;BME280;21441;52.190;20.910;2023-04-28T09:42:30;100566.75;;;15.02;33.11
35331;BME280;21441;52.190;20.910;2023-04-28T09:44:59;100581.03;;;14.15;33.48
35331;BME280;21441;52.190;20.910;2023-04-28T09:47:27;100572.16;;;13.32;34.22
35331;BME280;21441;52.190;20.910;2023-04-28T09:49:57;100573.78;;;13.41;34.64
35331;BME280;21441;52.190;20.910;2023-04-28T09:52:24;100576.31;;;13.88;34.54
35331;BME280;21441;52.190;20.910;2023-04-28T09:54:54;100572.53;;;13.29;35.17
35331;BME280;21441;52.190;20.910;2023-04-28T09:57:22;100575.91;;;13.46;34.31
35331;BME280;21441;52.190;20.910;2023-04-28T09:59:51;100558.97;;;13.46;34.67
35331;BME280;21441;52.190;20.910;2023-04-28T10:02:19;100555.13;;;13.63;34.54
35331;BME280;21441;52.190;20.910;2023-04-28T10:04:47;100553.38;;;13.85;32.82
35331;BME280;21441;52.190;20.910;2023-04-28T10:07:16;100543.38;;;14.23;33.63
35331;BME280;21441;52.190;20.910;2023-04-28T10:09:45;100538.56;;;14.04;34.18
35331;BME280;21441;52.190;20.910;2023-04-28T10:12:16;100533.03;;;14.06;33.51
35331;BME280;21441;52.190;20.910;2023-04-28T10:14:44;100528.66;;;14.04;32.89
35331;BME280;21441;52.190;20.910;2023-04-28T10:17:15;100527.59;;;13.99;32.89
35331;BME280;21441;52.190;20.910;2023-04-28T10:19:44;100524.13;;;14.05;32.30
35331;BME280;21441;52.190;20.910;2023-04-28T10:22:28;100539.22;;;14.21;33.20
35331;BME280;21441;52.190;20.910;2023-04-28T10:25:11;100532.22;;;14.56;32.69
35331;BME280;21441;52.190;20.910;2023-04-28T10:27:45;100533.81;;;14.94;33.68
35331;BME280;21441;52.190;20.910;2023-04-28T10:30:14;100525.81;;;15.00;32.66
35331;BME280;21441;52.190;20.910;2023-04-28T10:32:42;100522.91;;;15.23;32.85
35331;BME280;21441;52.190;20.910;2023-04-28T10:35:40;100522.09;;;15.23;32.20
35331;BME280;21441;52.190;20.910;2023-04-28T10:38:10;100522.81;;;14.16;31.99
35331;BME280;21441;52.190;20.910;2023-04-28T10:40:38;100521.81;;;14.53;32.00
35331;BME280;21441;52.190;20.910;2023-04-28T10:43:08;100526.72;;;15.36;31.65
35331;BME280;21441;52.190;20.910;2023-04-28T10:48:23;100518.03;;;15.34;31.44
35331;BME280;21441;52.190;20.910;2023-04-28T10:51:27;100507.50;;;15.39;30.81
35331;BME280;21441;52.190;20.910;2023-04-28T10:54:14;100503.47;;;15.84;30.47
35331;BME280;21441;52.190;20.910;2023-04-28T10:57:19;100511.16;;;15.53;30.31
35331;BME280;21441;52.190;20.910;2023-04-28T10:59:51;100514.22;;;14.20;31.59
35331;BME280;21441;52.190;20.910;2023-04-28T11:02:38;100508.78;;;14.87;31.91
35331;BME280;21441;52.190;20.910;2023-04-28T11:05:10;100510.22;;;14.31;31.71
35331;BME280;21441;52.190;20.910;2023-04-28T11:07:37;100505.03;;;15.37;31.26
35331;BME280;21441;52.190;20.910;2023-04-28T11:10:05;100489.66;;;15.87;30.32
35331;BME280;21441;52.190;20.910;2023-04-28T11:12:33;100488.91;;;16.95;30.96
35331;BME280;21441;52.190;20.910;2023-04-28T11:15:12;100492.19;;;16.90;28.92
35331;BME280;21441;52.190;20.910;2023-04-28T11:17:40;100482.59;;;16.55;28.99
35331;BME280;21441;52.190;20.910;2023-04-28T11:20:11;100478.50;;;16.79;30.40
35331;BME280;21441;52.190;20.910;2023-04-28T11:22:39;100480.59;;;17.43;28.89
35331;BME280;21441;52.190;20.910;2023-04-28T11:25:07;100472.69;;;18.13;28.72
35331;BME280;21441;52.190;20.910;2023-04-28T11:27:35;100472.25;;;17.51;28.60
35331;BME280;21441;52.190;20.910;2023-04-28T11:30:02;100471.56;;;17.76;28.73
35331;BME280;21441;52.190;20.910;2023-04-28T11:32:33;100463.22;;;17.98;27.42
35331;BME280;21441;52.190;20.910;2023-04-28T11:35:01;100469.78;;;17.30;28.09
35331;BME280;21441;52.190;20.910;2023-04-28T11:37:29;100464.44;;;16.97;28.32
35331;BME280;21441;52.190;20.910;2023-04-28T11:39:56;100449.59;;;17.72;27.62
35331;BME280;21441;52.190;20.910;2023-04-28T11:42:23;100462.75;;;18.46;27.25
35331;BME280;21441;52.190;20.910;2023-04-28T11:44:53;100440.44;;;18.25;27.23
35331;BME280;21441;52.190;20.910;2023-04-28T11:47:28;100458.84;;;17.11;27.74
35331;BME280;21441;52.190;20.910;2023-04-28T11:49:57;100459.78;;;17.64;27.78
35331;BME280;21441;52.190;20.910;2023-04-28T11:52:24;100461.25;;;18.18;28.02
35331;BME280;21441;52.190;20.910;2023-04-28T11:54:52;100433.06;;;18.71;27.28
35331;BME280;21441;52.190;20.910;2023-04-28T11:57:21;100449.59;;;19.31;26.48
35331;BME280;21441;52.190;20.910;2023-04-28T11:59:49;100447.88;;;16.93;27.83
35331;BME280;21441;52.190;20.910;2023-04-28T12:02:23;100449.84;;;18.48;27.45
35331;BME280;21441;52.190;20.910;2023-04-28T12:04:52;100462.78;;;18.71;27.16
35331;BME280;21441;52.190;20.910;2023-04-28T12:07:21;100457.25;;;17.69;27.61
35331;BME280;21441;52.190;20.910;2023-04-28T12:10:10;100438.28;;;16.77;29.21
35331;BME280;21441;52.190;20.910;2023-04-28T12:12:38;100436.25;;;16.99;28.24
35331;BME280;21441;52.190;20.910;2023-04-28T12:15:08;100427.50;;;16.57;28.83
35331;BME280;21441;52.190;20.910;2023-04-28T12:17:38;100432.47;;;17.33;28.79
35331;BME280;21441;52.190;20.910;2023-04-28T12:20:07;100430.50;;;17.74;28.67
35331;BME280;21441;52.190;20.910;2023-04-28T12:22:44;100426.25;;;17.33;29.76
35331;BME280;21441;52.190;20.910;2023-04-28T12:25:13;100440.13;;;16.43;28.17
35331;BME280;21441;52.190;20.910;2023-04-28T12:27:58;100420.81;;;16.13;29.69
35331;BME280;21441;52.190;20.910;2023-04-28T12:30:28;100428.22;;;15.98;30.03
35331;BME280;21441;52.190;20.910;2023-04-28T12:32:56;100419.03;;;16.47;29.69
35331;BME280;21441;52.190;20.910;2023-04-28T12:35:24;100415.06;;;16.36;29.39
35331;BME280;21441;52.190;20.910;2023-04-28T12:37:54;100420.69;;;16.68;29.24
35331;BME280;21441;52.190;20.910;2023-04-28T12:40:23;100420.06;;;16.59;28.96
35331;BME280;21441;52.190;20.910;2023-04-28T12:42:50;100413.19;;;16.23;29.66
35331;BME280;21441;52.190;20.910;2023-04-28T12:45:18;100411.16;;;17.05;28.85
35331;BME280;21441;52.190;20.910;2023-04-28T12:47:45;100408.16;;;17.47;28.88
35331;BME280;21441;52.190;20.910;2023-04-28T12:50:12;100406.25;;;18.12;28.63
35331;BME280;21441;52.190;20.910;2023-04-28T12:52:39;100410.47;;;18.02;27.90